Time;durP1;ratioP1;P1;durP2;ratioP2;P2;SDS_P1;SDS_P2;PMS_P1;PMS_P2;Temp;Humidity;BMP_temperature;BMP_pressure;BME280_temperature;BME280_humidity;BME280_pressure;Samples;Min_cycle;Max_cycle;Signal;HPM_P1;HPM_P2
2022/01/13 00:01:26;;;;;;;81.63;31.35;;;;;;;-4.52;100.00;98749.13;5004152;28;20049;-66
2022/01/13 00:03:51;;;;;;;79.65;32.22;;;;;;;-4.48;100.00;98744.16;4998164;28;20038;-65
2022/01/13 00:06:17;;;;;;;70.78;30.50;;;;;;;-4.50;100.00;98735.53;4997203;28;20046;-64
2022/01/13 00:08:42;;;;;;;76.85;31.42;;;;;;;-4.50;100.00;98728.34;5002834;28;20034;-65
2022/01/13 00:11:07;;;;;;;73.95;30.73;;;;;;;-4.54;100.00;98718.28;5005678;28;20052;-65
2022/01/13 00:13:46;;;;;;;70.22;30.45;;;;;;;-4.58;100.00;98720.56;5004890;28;20161;-65
2022/01/13 00:16:37;;;;;;;77.65;31.92;;;;;;;-4.60;100.00;98714.63;4994485;28;20076;-63
2022/01/13 00:19:18;;;;;;;77.40;30.25;;;;;;;-4.66;100.00;98727.03;4997187;28;20199;-63
2022/01/13 00:24:35;;;;;;;75.38;32.35;;;;;;;-4.74;100.00;98729.16;4976606;28;20107;-64
2022/01/13 00:27:09;;;;;;;86.25;33.15;;;;;;;-4.81;100.00;98732.69;4999910;28;20465;-66
2022/01/13 00:29:34;;;;;;;74.43;31.13;;;;;;;-4.83;100.00;98734.75;4995924;28;20483;-66
2022/01/13 00:31:59;;;;;;;77.13;32.60;;;;;;;-4.88;100.00;98736.44;5002921;28;20053;-66
2022/01/13 00:34:25;;;;;;;83.88;35.20;;;;;;;-4.89;100.00;98730.28;4997446;28;20124;-63
2022/01/13 00:36:50;;;;;;;79.25;32.72;;;;;;;-4.90;100.00;98728.63;5001966;28;20049;-65
2022/01/13 00:39:16;;;;;;;82.13;34.50;;;;;;;-4.93;100.00;98718.41;4998469;28;20038;-66
2022/01/13 00:41:41;;;;;;;83.65;35.40;;;;;;;-4.95;100.00;98727.66;5001797;28;20042;-66
2022/01/13 00:44:08;;;;;;;78.90;31.95;;;;;;;-5.05;100.00;98731.63;5003384;28;20038;-65
2022/01/13 00:46:43;;;;;;;84.32;34.25;;;;;;;-5.04;100.00;98732.44;4997885;28;20038;-65
2022/01/13 00:49:11;;;;;;;88.60;36.03;;;;;;;-5.07;100.00;98732.88;5003475;28;20061;-65
2022/01/13 00:51:37;;;;;;;87.65;36.08;;;;;;;-5.10;100.00;98742.13;4983138;28;20141;-65
2022/01/13 00:54:05;;;;;;;82.10;33.97;;;;;;;-5.12;100.00;98740.72;4990469;28;20107;-64
2022/01/13 00:56:32;;;;;;;83.80;34.10;;;;;;;-5.12;100.00;98741.53;5002172;28;20042;-65
2022/01/13 00:59:03;;;;;;;88.43;34.00;;;;;;;-5.10;100.00;98750.16;5002204;28;20041;-65
2022/01/13 01:01:29;;;;;;;87.97;33.53;;;;;;;-5.12;100.00;98752.22;4958908;28;1217815;-65
2022/01/13 01:03:54;;;;;;;87.78;33.95;;;;;;;-5.13;100.00;98750.59;5003732;28;20049;-65
2022/01/13 01:06:20;;;;;;;93.85;38.28;;;;;;;-5.09;100.00;98743.78;5012238;28;20128;-64
2022/01/13 01:08:46;;;;;;;86.00;35.88;;;;;;;-5.11;100.00;98745.00;5003199;28;20045;-64
2022/01/13 01:11:11;;;;;;;89.03;34.80;;;;;;;-5.12;100.00;98757.56;4998065;28;20423;-64
2022/01/13 01:13:38;;;;;;;90.18;36.25;;;;;;;-5.11;100.00;98756.53;5002005;28;20053;-65
2022/01/13 01:16:08;;;;;;;89.93;37.28;;;;;;;-5.11;100.00;98751.19;4997755;28;20042;-66
2022/01/13 01:18:48;;;;;;;87.43;35.25;;;;;;;-5.18;100.00;98759.25;5002518;28;20038;-65
2022/01/13 01:31:50;;;;;;;88.75;35.40;;;;;;;-5.26;100.00;98767.53;5016994;28;20132;-63
2022/01/13 01:36:45;;;;;;;86.37;35.73;;;;;;;-5.29;100.00;98785.81;5010166;28;20042;-65
2022/01/13 01:39:11;;;;;;;90.88;36.03;;;;;;;-5.29;100.00;98788.50;4996770;28;20495;-65
2022/01/13 01:41:43;;;;;;;96.45;38.15;;;;;;;-5.27;100.00;98789.09;5001848;28;20037;-64
2022/01/13 01:44:13;;;;;;;87.88;35.55;;;;;;;-5.33;100.00;98798.78;4997472;28;20053;-66
2022/01/13 01:46:42;;;;;;;92.95;39.38;;;;;;;-5.28;100.00;98790.94;5001873;28;20061;-63
2022/01/13 01:49:21;;;;;;;97.82;38.05;;;;;;;-5.27;100.00;98789.91;4997269;28;20204;-66
2022/01/13 01:51:50;;;;;;;97.80;37.83;;;;;;;-5.31;100.00;98790.53;5001583;28;20554;-65
2022/01/13 01:54:15;;;;;;;87.88;36.83;;;;;;;-5.32;100.00;98792.41;4996828;28;20041;-65
2022/01/13 01:56:43;;;;;;;91.15;35.97;;;;;;;-5.31;100.00;98790.53;5001869;28;20104;-66
2022/01/13 01:59:14;;;;;;;84.72;37.08;;;;;;;-5.27;100.00;98787.25;4997220;28;20572;-67
2022/01/13 02:01:40;;;;;;;80.55;32.90;;;;;;;-5.22;100.00;98792.78;5001755;28;20046;-65
2022/01/13 02:04:06;;;;;;;94.13;35.90;;;;;;;-5.21;100.00;98793.56;4996172;28;20033;-66
2022/01/13 02:06:32;;;;;;;85.63;35.00;;;;;;;-5.22;100.00;98779.41;5001199;28;20120;-65
2022/01/13 02:08:58;;;;;;;87.95;35.20;;;;;;;-5.21;100.00;98778.34;5001641;28;20042;-65
2022/01/13 02:11:25;;;;;;;84.53;32.78;;;;;;;-5.26;100.00;98775.53;4996433;28;20515;-65
2022/01/13 02:13:54;;;;;;;92.03;36.50;;;;;;;-5.22;100.00;98779.41;5001581;28;20073;-66
2022/01/13 02:16:53;;;;;;;79.97;31.17;;;;;;;-5.28;100.00;98782.91;4996252;28;20050;-66
2022/01/13 02:19:11;;;;;;;88.68;36.28;;;;;;;-5.31;100.00;98785.19;4995296;28;20125;-67
2022/01/13 02:21:37;;;;;;;88.90;36.00;;;;;;;-5.33;100.00;98777.41;5002100;28;20424;-64
2022/01/13 02:24:03;;;;;;;89.57;36.25;;;;;;;-5.31;100.00;98782.53;4999160;28;20091;-65
2022/01/13 02:26:28;;;;;;;82.13;33.30;;;;;;;-5.43;100.00;98780.53;4997260;28;20045;-64
2022/01/13 02:28:54;;;;;;;92.32;37.47;;;;;;;-5.38;100.00;98785.25;5001713;28;20148;-64
2022/01/13 02:31:21;;;;;;;89.43;35.60;;;;;;;-5.45;100.00;98782.59;4997228;28;20045;-66
2022/01/13 02:33:47;;;;;;;86.38;35.53;;;;;;;-5.44;100.00;98775.41;5011586;28;20503;-66
2022/01/13 02:36:16;;;;;;;98.22;38.45;;;;;;;-5.42;100.00;98776.84;5003680;28;20041;-65
2022/01/13 02:38:47;;;;;;;97.60;36.97;;;;;;;-5.46;100.00;98772.13;5004830;28;20531;-66
2022/01/13 02:41:12;;;;;;;88.85;33.78;;;;;;;-5.51;100.00;98771.94;5005889;28;20046;-66
2022/01/13 02:43:37;;;;;;;96.20;37.28;;;;;;;-5.54;100.00;98770.50;5022251;28;20048;-65
2022/01/13 02:46:43;;;;;;;97.20;35.50;;;;;;;-5.50;100.00;98776.25;4998156;28;20483;-67
2022/01/13 02:49:13;;;;;;;95.80;38.03;;;;;;;-5.51;100.00;98780.78;4978812;28;20046;-67
2022/01/13 02:51:42;;;;;;;96.97;36.97;;;;;;;-5.54;100.00;98777.72;5016158;28;20072;-65
2022/01/13 02:54:08;;;;;;;98.82;35.65;;;;;;;-5.56;100.00;98791.28;4999615;28;20121;-64
2022/01/13 02:56:34;;;;;;;100.05;36.05;;;;;;;-5.59;100.00;98783.69;5003702;28;20042;-66
2022/01/13 02:59:00;;;;;;;95.03;36.65;;;;;;;-5.60;100.00;98782.03;5006334;28;20073;-65
2022/01/13 03:01:25;;;;;;;102.00;37.38;;;;;;;-5.63;100.00;98779.78;4995894;28;20046;-66
2022/01/13 03:03:51;;;;;;;93.40;37.15;;;;;;;-5.67;100.00;98773.22;4999908;28;20108;-65
2022/01/13 03:06:28;;;;;;;102.07;38.95;;;;;;;-5.66;100.00;98765.00;4996379;28;20092;-65
2022/01/13 03:08:54;;;;;;;92.72;36.10;;;;;;;-5.69;100.00;98768.13;4997036;28;20044;-65
2022/01/13 03:11:23;;;;;;;107.65;37.75;;;;;;;-5.69;100.00;98773.44;4990212;28;20137;-66
2022/01/13 03:13:49;;;;;;;102.30;37.92;;;;;;;-5.69;100.00;98767.28;4999465;28;20092;-66
2022/01/13 03:16:15;;;;;;;101.35;38.38;;;;;;;-5.68;100.00;98776.94;4990964;28;20038;-66
2022/01/13 03:18:41;;;;;;;103.15;40.03;;;;;;;-5.66;100.00;98767.66;5013216;28;20048;-64
2022/01/13 03:21:07;;;;;;;103.85;39.38;;;;;;;-5.65;100.00;98772.00;4986645;28;20042;-65
2022/01/13 03:23:34;;;;;;;93.95;36.28;;;;;;;-5.69;100.00;98780.63;4991755;28;20085;-65
2022/01/13 03:26:00;;;;;;;103.10;35.58;;;;;;;-5.69;100.00;98772.63;5001101;28;20430;-65
2022/01/13 03:28:30;;;;;;;99.00;37.20;;;;;;;-5.66;100.00;98780.22;4995195;28;20129;-65
2022/01/13 03:31:00;;;;;;;103.30;36.90;;;;;;;-5.62;100.00;98773.41;4990098;28;20038;-62
2022/01/13 03:33:27;;;;;;;106.68;38.70;;;;;;;-5.60;100.00;98761.50;4988839;28;20085;-64
2022/01/13 03:35:52;;;;;;;106.45;37.40;;;;;;;-5.62;100.00;98760.91;4989748;28;20042;-66
2022/01/13 03:38:18;;;;;;;101.95;37.50;;;;;;;-5.59;100.00;98759.66;4989797;28;20038;-66
2022/01/13 03:40:44;;;;;;;102.43;38.47;;;;;;;-5.60;100.00;98758.84;5000338;28;20380;-65
2022/01/13 03:43:11;;;;;;;110.68;37.58;;;;;;;-5.61;100.00;98757.19;4990809;28;20474;-66
2022/01/13 03:45:36;;;;;;;106.10;39.92;;;;;;;-5.60;100.00;98756.16;4993135;28;20080;-66
2022/01/13 03:48:02;;;;;;;105.72;38.63;;;;;;;-5.62;100.00;98752.06;4992263;28;20065;-65
2022/01/13 03:50:28;;;;;;;104.55;38.65;;;;;;;-5.60;100.00;98750.81;4995017;28;20053;-65
2022/01/13 03:53:02;;;;;;;111.03;39.88;;;;;;;-5.59;100.00;98746.28;4983828;28;20089;-65
2022/01/13 03:56:13;;;;;;;105.63;39.67;;;;;;;-5.54;100.00;98756.34;4980669;28;20252;-67
2022/01/13 03:59:33;;;;;;;107.68;37.47;;;;;;;-5.60;100.00;98753.50;4979811;28;20046;-65
2022/01/13 04:02:00;;;;;;;;;;;;;;;-5.59;100.00;98767.66;4978372;28;20169;-64
2022/01/13 04:04:27;;;;;;;109.65;38.75;;;;;;;-5.58;100.00;98772.78;4982952;28;19917;-64
2022/01/13 04:07:12;;;;;;;103.13;36.78;;;;;;;-5.58;100.00;98775.47;4993865;28;20165;-65
2022/01/13 04:09:40;;;;;;;111.75;39.72;;;;;;;-5.61;100.00;98788.41;5003159;28;20052;-66
2022/01/13 04:12:09;;;;;;;100.53;35.13;;;;;;;-5.62;100.00;98778.75;4997034;28;20041;-66
2022/01/13 04:14:45;;;;;;;100.75;33.88;;;;;;;-5.67;100.00;98774.06;4985372;28;20049;-65
2022/01/13 04:17:16;;;;;;;92.65;34.40;;;;;;;-5.66;100.00;98770.34;4992059;28;20535;-66
2022/01/13 04:19:42;;;;;;;94.55;32.92;;;;;;;-5.64;100.00;98778.16;4996830;28;20038;-66
2022/01/13 04:22:08;;;;;;;93.40;32.25;;;;;;;-5.70;100.00;98779.81;4993127;28;20035;-66
2022/01/13 04:24:36;;;;;;;92.20;33.45;;;;;;;-5.57;100.00;98787.75;5000181;28;20042;-66
2022/01/13 04:27:02;;;;;;;85.43;33.42;;;;;;;-5.57;100.00;98776.28;5001275;28;20495;-63
2022/01/13 04:29:37;;;;;;;92.15;32.80;;;;;;;-5.50;100.00;98776.25;4990915;28;20390;-65
2022/01/13 04:32:04;;;;;;;94.22;32.22;;;;;;;-5.47;100.00;98778.50;5003514;28;20038;-65
2022/01/13 04:34:30;;;;;;;85.88;31.83;;;;;;;-5.46;100.00;98774.78;5002329;28;20041;-65
2022/01/13 04:36:58;;;;;;;91.28;30.40;;;;;;;-5.45;100.00;98782.59;4995066;28;20100;-65
2022/01/13 04:39:24;;;;;;;96.07;34.08;;;;;;;-5.49;100.00;98776.03;4997774;28;20056;-65
2022/01/13 04:41:52;;;;;;;90.75;32.17;;;;;;;-5.48;100.00;98772.31;5002704;28;20056;-65
2022/01/13 04:44:21;;;;;;;98.00;33.35;;;;;;;-5.50;100.00;98776.25;5002193;28;20041;-64
2022/01/13 04:46:48;;;;;;;89.63;32.80;;;;;;;-5.62;100.00;98765.41;4999262;28;20049;-66
2022/01/13 04:49:14;;;;;;;90.05;33.05;;;;;;;-5.51;100.00;98764.75;4992480;28;20289;-65
2022/01/13 04:51:40;;;;;;;91.47;31.73;;;;;;;-5.50;100.00;98762.91;5002362;28;20141;-66
2022/01/13 04:54:06;;;;;;;93.70;34.15;;;;;;;-5.44;100.00;98764.72;4989144;28;20052;-65
2022/01/13 04:56:45;;;;;;;100.28;34.35;;;;;;;-5.48;100.00;98767.00;5002409;28;20046;-65
2022/01/13 04:59:11;;;;;;;106.63;34.55;;;;;;;-5.55;100.00;98774.19;4997329;28;20522;-66
2022/01/13 05:01:38;;;;;;;102.07;34.40;;;;;;;-5.55;100.00;98768.06;5000669;28;20061;-66
2022/01/13 05:04:05;;;;;;;92.47;33.38;;;;;;;-5.54;100.00;98769.69;4989710;28;20503;-66
2022/01/13 05:06:30;;;;;;;89.65;31.88;;;;;;;-5.58;100.00;98771.97;4994273;28;20060;-65
2022/01/13 05:08:56;;;;;;;94.68;33.50;;;;;;;-5.55;100.00;98768.06;5002144;28;20041;-66
2022/01/13 05:11:22;;;;;;;91.20;31.48;;;;;;;-5.51;100.00;98764.75;4996206;28;20081;-64
2022/01/13 05:13:47;;;;;;;94.07;33.42;;;;;;;-5.46;100.00;98761.44;4994156;28;20050;-65
2022/01/13 05:16:24;;;;;;;97.50;34.67;;;;;;;-5.45;100.00;98763.09;4994167;28;20046;-65
2022/01/13 05:18:58;;;;;;;97.78;32.30;;;;;;;-5.38;100.00;98761.22;4992943;28;20053;-66
2022/01/13 05:23:52;;;;;;;91.32;30.73;;;;;;;-5.49;100.00;98765.38;5001690;28;20061;-64
2022/01/13 05:26:22;;;;;;;94.78;32.70;;;;;;;-5.52;100.00;98765.78;4996501;28;20124;-64
2022/01/13 05:28:47;;;;;;;100.85;33.15;;;;;;;-5.55;100.00;98757.38;5002876;28;20062;-64
2022/01/13 05:31:13;;;;;;;100.20;34.38;;;;;;;-5.52;100.00;98757.78;4991282;28;20482;-64
2022/01/13 05:33:39;;;;;;;98.25;33.85;;;;;;;-5.57;100.00;98768.25;4986097;28;20046;-66
2022/01/13 05:36:05;;;;;;;109.40;36.28;;;;;;;-5.54;100.00;98775.03;4991300;28;20053;-65
2022/01/13 05:38:31;;;;;;;89.40;33.05;;;;;;;-5.58;100.00;98778.13;5000607;28;20069;-65
2022/01/13 05:40:58;;;;;;;99.03;33.05;;;;;;;-5.63;100.00;98777.13;5017426;28;20525;-65
2022/01/13 05:43:25;;;;;;;106.78;34.00;;;;;;;-5.60;100.00;98780.19;4990379;28;20262;-65
2022/01/13 05:45:51;;;;;;;99.60;34.67;;;;;;;-5.67;100.00;98778.56;4996442;28;20048;-66
2022/01/13 05:48:16;;;;;;;100.70;31.00;;;;;;;-5.56;100.00;98791.28;4988767;28;20133;-65
2022/01/13 05:50:42;;;;;;;98.82;33.28;;;;;;;-5.58;100.00;98796.81;5000241;28;20056;-64
2022/01/13 05:53:07;;;;;;;106.32;34.92;;;;;;;-5.59;100.00;98794.34;4988020;28;20061;-66
2022/01/13 05:55:33;;;;;;;106.93;35.58;;;;;;;-5.57;100.00;98795.78;5001785;28;20038;-66
2022/01/13 05:57:59;;;;;;;98.57;33.90;;;;;;;-5.58;100.00;98788.81;5002160;28;20058;-65
2022/01/13 06:00:25;;;;;;;102.72;33.65;;;;;;;-5.53;100.00;98784.69;4993617;28;21592;-64
2022/01/13 06:02:52;;;;;;;101.18;34.35;;;;;;;-5.52;100.00;98783.66;4999067;28;20046;-66
2022/01/13 06:05:18;;;;;;;96.15;33.80;;;;;;;-5.54;100.00;98775.03;4991921;28;20046;-66
2022/01/13 06:07:44;;;;;;;102.43;33.42;;;;;;;-5.58;100.00;98775.47;5014850;28;20050;-66
2022/01/13 06:10:14;;;;;;;100.63;34.38;;;;;;;-5.54;100.00;98778.53;4985623;28;20411;-66
2022/01/13 06:12:39;;;;;;;;;;;;;;;-5.58;100.00;98770.13;4993182;28;20054;-66
2022/01/13 06:15:08;;;;;;;99.47;34.55;;;;;;;-5.49;100.00;98770.69;4995484;28;20048;-63
2022/01/13 06:17:35;;;;;;;89.28;30.85;;;;;;;-5.52;100.00;98772.97;4993186;28;20484;-67
2022/01/13 06:20:02;;;;;;;95.72;31.48;;;;;;;-5.55;100.00;98776.06;5002627;28;20045;-67
2022/01/13 06:22:28;;;;;;;91.45;30.67;;;;;;;-5.61;100.00;98770.53;4995029;28;20084;-66
2022/01/13 06:24:55;;;;;;;101.72;31.88;;;;;;;-5.60;100.00;98768.66;4998154;28;20033;-65
2022/01/13 06:27:22;;;;;;;96.60;32.50;;;;;;;-5.61;100.00;98770.53;4989948;28;20438;-64
2022/01/13 06:29:49;;;;;;;88.88;31.92;;;;;;;-5.58;100.00;98770.13;5010894;28;20049;-66
2022/01/13 06:32:14;;;;;;;104.72;34.03;;;;;;;-5.64;100.00;98770.13;5004831;28;20105;-66
2022/01/13 06:34:40;;;;;;;100.70;32.95;;;;;;;-5.69;100.00;98769.94;5017584;28;20045;-66
2022/01/13 06:37:05;;;;;;;103.40;37.15;;;;;;;-5.70;100.00;98777.13;5007170;28;20042;-66
2022/01/13 06:39:31;;;;;;;102.32;32.28;;;;;;;-5.77;100.00;98773.66;5015342;28;20041;-65
2022/01/13 06:41:56;;;;;;;98.97;32.33;;;;;;;-5.84;100.00;98767.53;5017047;28;20554;-66
2022/01/13 06:44:21;;;;;;;93.18;32.90;;;;;;;-5.95;100.00;98774.34;5000632;28;20050;-66
2022/01/13 06:46:47;;;;;;;98.78;31.50;;;;;;;-5.95;100.00;98783.16;5018050;28;20042;-66
2022/01/13 06:49:12;;;;;;;93.47;31.05;;;;;;;-5.83;100.00;98791.34;4994919;28;20061;-65
2022/01/13 06:51:37;;;;;;;86.80;31.80;;;;;;;-5.71;100.00;98798.69;5008068;28;20499;-65
2022/01/13 06:54:03;;;;;;;86.18;31.23;;;;;;;-5.60;100.00;98800.72;4995725;28;20794;-66
2022/01/13 06:56:29;;;;;;;83.70;31.80;;;;;;;-5.57;100.00;98801.09;4991699;28;20225;-65
2022/01/13 06:58:55;;;;;;;72.85;30.45;;;;;;;-5.57;100.00;98806.44;5001864;28;20045;-65
2022/01/13 07:01:22;;;;;;;87.40;30.67;;;;;;;-5.55;100.00;98803.56;4989849;28;20042;-65
2022/01/13 07:03:48;;;;;;;75.53;29.00;;;;;;;-5.57;100.00;98810.97;4999842;28;20391;-65
2022/01/13 07:06:14;;;;;;;69.43;29.10;;;;;;;-6.03;100.00;98818.09;4975815;28;20042;-65
2022/01/13 07:08:39;;;;;;;79.18;29.58;;;;;;;-6.43;100.00;98809.28;4979279;28;20053;-65
2022/01/13 07:11:05;;;;;;;73.22;28.17;;;;;;;-6.35;100.00;98801.09;4986937;28;20181;-66
2022/01/13 07:13:31;;;;;;;76.32;29.70;;;;;;;-6.46;100.00;98799.03;4992613;28;20066;-65
2022/01/13 07:15:58;;;;;;;82.25;32.13;;;;;;;-6.51;100.00;98807.66;4996271;28;20054;-66
2022/01/13 07:18:24;;;;;;;90.13;31.33;;;;;;;-6.58;100.00;98817.50;4991766;28;20061;-65
2022/01/13 07:20:49;;;;;;;83.13;30.63;;;;;;;-6.64;100.00;98819.13;4982885;28;20046;-66
2022/01/13 07:23:15;;;;;;;90.25;32.63;;;;;;;-6.38;100.00;98806.84;4987418;28;20410;-66
2022/01/13 07:25:40;;;;;;;91.15;32.05;;;;;;;-6.27;100.00;98806.22;4998146;28;20407;-66
2022/01/13 07:28:06;;;;;;;93.47;33.60;;;;;;;-6.21;100.00;98813.41;4997958;28;20049;-65
2022/01/13 07:30:34;;;;;;;92.55;34.90;;;;;;;-6.24;100.00;98821.81;4998651;28;20050;-66
2022/01/13 07:33:00;;;;;;;97.55;36.35;;;;;;;-6.25;100.00;98828.16;5001504;28;20041;-65
2022/01/13 07:35:26;;;;;;;92.50;33.75;;;;;;;-6.23;100.00;98826.13;4983889;28;20050;-66
2022/01/13 07:37:51;;;;;;;112.75;38.65;;;;;;;-6.01;100.00;98821.38;4992631;28;20042;-65
2022/01/13 07:40:17;;;;;;;100.78;35.88;;;;;;;-5.99;100.00;98823.84;4991384;28;20046;-65
2022/01/13 07:42:44;;;;;;;100.65;36.38;;;;;;;-5.98;100.00;98823.66;4995941;28;20038;-65
2022/01/13 07:45:12;;;;;;;125.57;41.95;;;;;;;-5.84;100.00;98829.72;4990223;28;20454;-67
2022/01/13 07:47:37;;;;;;;99.45;35.17;;;;;;;-5.72;100.00;98834.44;5015703;28;20049;-67
2022/01/13 07:50:05;;;;;;;104.82;39.92;;;;;;;-5.59;100.00;98839.75;4989039;28;20053;-66
2022/01/13 07:52:31;;;;;;;103.45;37.63;;;;;;;-5.44;100.00;98843.00;4985039;28;20078;-67
2022/01/13 07:54:56;;;;;;;96.03;37.15;;;;;;;-5.33;100.00;98854.03;4985435;28;20422;-65
2022/01/13 07:57:22;;;;;;;97.03;35.22;;;;;;;-5.19;100.00;98851.09;4991795;28;21036;-67
2022/01/13 07:59:48;;;;;;;107.53;36.65;;;;;;;-5.06;100.00;98855.59;5001759;28;20530;-67
2022/01/13 08:02:14;;;;;;;94.10;33.53;;;;;;;-4.92;100.00;98850.19;4996575;28;20044;-65
2022/01/13 08:04:39;;;;;;;104.32;38.13;;;;;;;-4.98;100.00;98853.72;4995171;28;20092;-66
2022/01/13 08:07:05;;;;;;;93.10;34.13;;;;;;;-4.83;100.00;98836.34;4998935;28;20037;-67
2022/01/13 08:09:30;;;;;;;86.30;32.50;;;;;;;-4.88;100.00;98852.22;5001926;28;20128;-66
2022/01/13 08:11:56;;;;;;;89.22;33.63;;;;;;;-4.90;100.00;98851.59;4994280;28;20046;-65
2022/01/13 08:14:21;;;;;;;87.82;30.40;;;;;;;-4.66;100.00;98852.69;4993253;28;20160;-66
2022/01/13 08:16:47;;;;;;;85.15;29.70;;;;;;;-4.09;100.00;98860.75;4994031;28;20048;-65
2022/01/13 08:21:57;;;;;;;79.78;28.73;;;;;;;-2.98;100.00;98858.13;4991286;28;20045;-67
2022/01/13 08:24:22;;;;;;;71.95;29.38;;;;;;;-2.18;100.00;98848.13;4993590;28;20848;-66
2022/01/13 08:26:47;;;;;;;71.85;28.55;;;;;;;-1.33;93.01;98851.41;4996041;28;20053;-65
2022/01/13 08:29:13;;;;;;;65.28;25.42;;;;;;;-0.46;86.10;98842.34;4989521;28;20120;-65
2022/01/13 08:31:38;;;;;;;58.33;25.38;;;;;;;0.01;84.42;98846.66;4999016;28;21091;-65
2022/01/13 08:34:04;;;;;;;60.83;26.35;;;;;;;-0.73;83.29;98845.63;4992650;28;20061;-65
2022/01/13 08:36:29;;;;;;;65.45;27.63;;;;;;;-1.26;89.84;98835.97;4982613;28;20054;-64
2022/01/13 08:38:55;;;;;;;56.55;24.42;;;;;;;0.17;82.59;98835.84;4983452;28;20042;-65
2022/01/13 08:41:20;;;;;;;59.28;25.52;;;;;;;-0.16;82.64;98833.16;4978323;28;20099;-62
2022/01/13 08:43:46;;;;;;;58.67;25.75;;;;;;;-1.78;92.31;98834.06;4989049;28;20072;-65
2022/01/13 08:46:11;;;;;;;70.85;31.42;;;;;;;-1.51;92.78;98820.94;4989283;28;20069;-66
2022/01/13 08:48:36;;;;;;;57.60;24.42;;;;;;;-1.31;91.46;98822.44;5000378;28;20525;-65
2022/01/13 08:51:04;;;;;;;64.07;25.17;;;;;;;-0.92;88.31;98817.28;4983094;28;20094;-66
2022/01/13 08:53:29;;;;;;;58.88;23.52;;;;;;;-0.24;82.53;98819.03;4991622;28;20135;-66
2022/01/13 08:55:55;;;;;;;57.28;24.25;;;;;;;0.12;82.97;98832.25;4993847;28;20523;-65
2022/01/13 08:58:22;;;;;;;55.83;23.27;;;;;;;0.29;82.29;98816.91;5006613;28;20049;-65
2022/01/13 09:00:49;;;;;;;55.35;23.95;;;;;;;0.43;81.17;98824.63;5000099;28;20069;-65
2022/01/13 09:03:15;;;;;;;54.78;23.48;;;;;;;1.50;74.87;98825.09;4994944;28;20037;-66
2022/01/13 09:05:42;;;;;;;55.65;25.58;;;;;;;0.09;76.89;98825.50;4997166;28;20517;-65
2022/01/13 09:08:10;;;;;;;56.22;23.70;;;;;;;0.33;82.51;98828.00;4992668;28;20041;-65
2022/01/13 09:10:38;;;;;;;62.60;26.00;;;;;;;-2.00;90.95;98823.91;4983804;28;20042;-64
2022/01/13 09:13:04;;;;;;;61.22;26.42;;;;;;;-2.44;94.74;98823.34;4982400;28;20049;-64
2022/01/13 09:15:33;;;;;;;59.92;24.42;;;;;;;-1.98;93.90;98823.63;4993140;28;20510;-66
2022/01/13 09:18:07;;;;;;;63.30;28.58;;;;;;;-2.07;94.26;98825.88;4992900;28;20041;-64
2022/01/13 09:20:33;;;;;;;60.83;25.17;;;;;;;-2.35;97.38;98829.22;4999598;28;20104;-63
2022/01/13 09:22:58;;;;;;;64.60;27.83;;;;;;;-2.50;97.81;98827.78;4992567;28;20629;-65
2022/01/13 09:25:24;;;;;;;61.72;24.55;;;;;;;-1.85;97.35;98825.31;4996346;28;20053;-64
2022/01/13 09:27:49;;;;;;;63.60;26.73;;;;;;;-2.34;95.23;98831.66;5002685;28;20054;-65
2022/01/13 09:30:15;;;;;;;65.55;25.13;;;;;;;-2.06;96.29;98830.19;4994809;28;20050;-64
2022/01/13 09:32:41;;;;;;;62.70;26.08;;;;;;;-1.97;95.31;98830.66;4999127;28;20502;-64
2022/01/13 09:35:07;;;;;;;67.15;26.20;;;;;;;-1.99;94.94;98830.88;4989004;28;20065;-65
2022/01/13 09:37:34;;;;;;;59.88;24.73;;;;;;;-2.02;94.69;98835.91;4994817;28;20078;-65
2022/01/13 09:40:01;;;;;;;58.08;23.05;;;;;;;-1.63;92.43;98847.00;5000960;28;20084;-66
2022/01/13 09:42:29;;;;;;;61.88;24.52;;;;;;;-1.56;95.75;98839.66;4990116;28;20045;-65
2022/01/13 09:44:55;;;;;;;61.05;25.63;;;;;;;-1.68;94.13;98839.66;5013071;28;20076;-65
2022/01/13 09:47:21;;;;;;;57.80;24.33;;;;;;;-0.41;90.83;98842.44;4993359;28;20433;-65
2022/01/13 09:49:47;;;;;;;55.75;24.42;;;;;;;-0.77;86.07;98844.50;4991015;28;20041;-65
2022/01/13 09:52:13;;;;;;;55.97;23.50;;;;;;;-1.78;93.42;98842.13;4992130;28;20049;-65
2022/01/13 09:54:38;;;;;;;59.33;24.20;;;;;;;-2.21;94.56;98838.69;5012677;28;21136;-63
2022/01/13 09:57:04;;;;;;;62.83;24.63;;;;;;;-2.25;95.46;98842.88;4988835;28;20442;-62
2022/01/13 09:59:29;;;;;;;63.78;26.77;;;;;;;-1.99;94.55;98843.50;5001476;28;20502;-64
2022/01/13 10:01:55;;;;;;;62.95;26.80;;;;;;;-1.99;94.22;98838.13;5012091;28;20046;-66
2022/01/13 10:04:20;;;;;;;59.60;23.73;;;;;;;-1.88;93.17;98840.00;4988279;28;21509;-65
2022/01/13 10:06:47;;;;;;;55.88;23.15;;;;;;;-1.79;92.07;98837.78;5014107;28;20503;-66
2022/01/13 10:09:14;;;;;;;56.88;23.10;;;;;;;-1.75;92.99;98841.63;4996231;28;20034;-65
2022/01/13 10:11:53;;;;;;;61.00;23.92;;;;;;;-2.10;95.00;98842.44;5001441;28;20050;-65
2022/01/13 10:16:56;;;;;;;58.00;22.13;;;;;;;-1.90;91.97;98830.56;4991105;28;20549;-66
2022/01/13 10:19:33;;;;;;;56.58;24.08;;;;;;;-1.89;93.78;98841.06;4976920;28;20044;-66
2022/01/13 10:22:04;;;;;;;52.45;23.70;;;;;;;-1.97;93.06;98830.66;4992407;28;20038;-66
2022/01/13 10:24:32;;;;;;;49.30;21.40;;;;;;;-1.62;91.56;98833.34;4995959;28;20056;-66
2022/01/13 10:26:57;;;;;;;52.42;22.75;;;;;;;-1.55;91.20;98823.28;4996608;28;20053;-65
2022/01/13 10:29:56;;;;;;;57.13;23.35;;;;;;;-1.95;91.04;98832.03;4989536;28;20614;-67
2022/01/13 10:32:33;;;;;;;50.97;20.65;;;;;;;-1.29;89.69;98826.50;4972725;28;20050;-66
2022/01/13 10:35:11;;;;;;;53.83;21.33;;;;;;;-1.38;87.66;98836.00;4982071;28;20433;-66
2022/01/13 10:37:45;;;;;;;50.45;20.50;;;;;;;-1.67;89.36;98822.47;4993920;28;20067;-66
2022/01/13 10:40:17;;;;;;;58.00;21.50;;;;;;;-1.81;91.05;98829.16;4988642;28;20495;-66
2022/01/13 10:45:21;;;;;;;61.28;23.17;;;;;;;-1.88;92.32;98825.75;4987782;23;20061;-64
2022/01/13 10:47:56;;;;;;;62.15;27.63;;;;;;;-1.69;93.24;98821.06;4962672;28;20125;-64
2022/01/13 10:50:27;;;;;;;56.33;24.83;;;;;;;-1.68;91.85;98820.84;4960111;28;20721;-63
2022/01/13 10:52:52;;;;;;;56.08;23.45;;;;;;;-1.51;93.55;98817.44;4955224;28;20039;-67
2022/01/13 10:55:23;;;;;;;51.72;21.60;;;;;;;-1.30;90.03;98816.00;4952186;28;20272;-66
2022/01/13 10:57:51;;;;;;;54.58;21.05;;;;;;;-1.31;90.99;98814.38;4961512;28;20042;-67
2022/01/13 11:00:16;;;;;;;48.05;20.35;;;;;;;-1.37;89.92;98808.06;4950131;28;20058;-63
2022/01/13 11:03:06;;;;;;;53.22;20.58;;;;;;;-0.64;88.75;98813.78;4957109;28;20411;-64
2022/01/13 11:05:34;;;;;;;50.10;21.20;;;;;;;-0.67;89.45;98806.97;4956960;28;20074;-64
2022/01/13 11:08:05;;;;;;;50.55;20.08;;;;;;;-1.22;89.58;98808.38;4959908;28;20039;-65
2022/01/13 11:10:31;;;;;;;59.10;23.10;;;;;;;-0.84;90.66;98808.84;4982345;28;20140;-63
2022/01/13 11:12:58;;;;;;;51.65;20.35;;;;;;;-0.63;88.57;98801.94;4967469;28;20047;-63
2022/01/13 11:15:25;;;;;;;54.40;21.52;;;;;;;-0.21;86.96;98802.41;4955022;28;20244;-63
2022/01/13 11:17:54;;;;;;;47.15;20.13;;;;;;;-0.69;87.99;98803.72;4965703;28;20049;-65
2022/01/13 11:20:21;;;;;;;49.47;21.85;;;;;;;-0.53;86.73;98802.13;4957508;28;20104;-65
2022/01/13 11:22:50;;;;;;;50.17;21.60;;;;;;;-0.53;87.12;98798.63;4963935;28;20054;-65
2022/01/13 11:25:18;;;;;;;47.63;20.13;;;;;;;-0.83;87.90;98802.38;4953826;28;20043;-65
2022/01/13 11:27:45;;;;;;;52.00;20.75;;;;;;;-0.72;87.01;98790.78;4965591;28;20039;-66
2022/01/13 11:30:16;;;;;;;50.63;21.05;;;;;;;-0.91;87.45;98792.84;4958422;28;20125;-65
2022/01/13 11:32:43;;;;;;;48.38;21.85;;;;;;;-0.69;86.29;98781.38;4965024;28;20145;-65
2022/01/13 11:35:15;;;;;;;51.22;21.83;;;;;;;-0.89;85.35;98782.63;4959849;28;20042;-66
2022/01/13 11:37:42;;;;;;;48.28;21.65;;;;;;;-0.64;86.79;98787.66;4963327;28;20049;-66
2022/01/13 11:40:27;;;;;;;48.88;20.60;;;;;;;-0.35;84.96;98784.13;4957712;28;20182;-65
2022/01/13 11:42:54;;;;;;;43.92;19.45;;;;;;;0.19;80.79;98784.41;4962122;28;20053;-65